Time;durP1;ratioP1;P1;durP2;ratioP2;P2;SDS_P1;SDS_P2;PMS_P1;PMS_P2;Temp;Humidity;BMP_temperature;BMP_pressure;BME280_temperature;BME280_humidity;BME280_pressure;Samples;Min_cycle;Max_cycle;Signal;HPM_P1;HPM_P2
2024/03/31 00:00:50;;;;;;;;;;;21.60;45.30;;;;;;3026468;19;4614;-24
2024/03/31 00:01:51;;;;;;;;;;;21.60;45.30;;;;;;3050240;19;4718;-25
2024/03/31 00:02:51;;;;;;;;;;;21.60;45.40;;;;;;3028791;19;4667;-24
2024/03/31 00:03:52;;;;;;;;;;;21.60;45.40;;;;;;3052495;19;4615;-24
2024/03/31 00:04:52;;;;;;;;;;;21.50;45.30;;;;;;3049311;19;4700;-25
2024/03/31 00:05:56;;;;;;;;;;;21.60;45.40;;;;;;3028740;19;4680;-26
2024/03/31 00:06:57;;;;;;;;;;;21.50;45.30;;;;;;3049183;19;4816;-26
2024/03/31 00:07:58;;;;;;;;;;;21.50;45.30;;;;;;3029978;19;4648;-25
2024/03/31 00:08:58;;;;;;;;;;;21.50;45.40;;;;;;3049302;19;4702;-25
2024/03/31 00:09:59;;;;;;;;;;;21.50;45.40;;;;;;3051752;19;4809;-24
2024/03/31 00:11:00;;;;;;;;;;;21.50;45.30;;;;;;3028300;19;4717;-28
2024/03/31 00:12:01;;;;;;;;;;;21.80;45.50;;;;;;3051719;19;4620;-27
2024/03/31 00:13:01;;;;;;;;;;;21.50;45.30;;;;;;3050221;19;4701;-24
2024/03/31 00:14:02;;;;;;;;;;;21.50;45.40;;;;;;3030195;19;4828;-23
2024/03/31 00:15:03;;;;;;;;;;;21.50;45.40;;;;;;3048254;19;4655;-25
2024/03/31 00:16:03;;;;;;;;;;;21.50;45.40;;;;;;3029177;19;4737;-26
2024/03/31 00:17:04;;;;;;;;;;;21.50;45.40;;;;;;3051980;19;4758;-24
2024/03/31 00:18:05;;;;;;;;;;;21.50;46.10;;;;;;3050450;19;4588;-24
2024/03/31 00:19:06;;;;;;;;;;;21.40;45.90;;;;;;3029344;19;4726;-24
2024/03/31 00:20:06;;;;;;;;;;;21.50;45.40;;;;;;3049707;19;4693;-27
2024/03/31 00:21:09;;;;;;;;;;;21.50;45.30;;;;;;3050384;19;4644;-24
2024/03/31 00:22:10;;;;;;;;;;;21.40;45.40;;;;;;3027692;19;4170;-24
2024/03/31 00:23:10;;;;;;;;;;;21.50;45.40;;;;;;3050062;19;4646;-24
2024/03/31 00:24:11;;;;;;;;;;;21.40;45.30;;;;;;3030260;19;4602;-24
2024/03/31 00:25:12;;;;;;;;;;;21.50;45.40;;;;;;3049420;19;4626;-26
2024/03/31 00:26:12;;;;;;;;;;;21.50;45.50;;;;;;3049208;19;4628;-25
2024/03/31 00:27:13;;;;;;;;;;;21.40;45.50;;;;;;3029428;19;4586;-24
2024/03/31 00:28:14;;;;;;;;;;;21.40;45.50;;;;;;3050414;19;4718;-25
2024/03/31 00:29:14;;;;;;;;;;;21.50;45.50;;;;;;3030106;19;4778;-24
2024/03/31 00:30:15;;;;;;;;;;;21.50;46.10;;;;;;3049354;19;4701;-25
2024/03/31 00:31:16;;;;;;;;;;;21.40;45.40;;;;;;3050455;19;4731;-24
2024/03/31 00:32:16;;;;;;;;;;;21.40;45.40;;;;;;3028718;19;4666;-23
2024/03/31 00:33:17;;;;;;;;;;;21.40;45.40;;;;;;3052012;19;4796;-24
2024/03/31 00:34:21;;;;;;;;;;;21.40;45.50;;;;;;3049657;19;4701;-25
2024/03/31 00:35:22;;;;;;;;;;;21.40;45.40;;;;;;3027982;19;4705;-24
2024/03/31 00:36:22;;;;;;;;;;;21.40;45.50;;;;;;3050457;19;4680;-26
2024/03/31 00:37:23;;;;;;;;;;;21.40;45.40;;;;;;3027904;19;4682;-24
2024/03/31 00:38:24;;;;;;;;;;;21.40;45.50;;;;;;3050621;19;4671;-24
2024/03/31 00:39:25;;;;;;;;;;;21.40;45.50;;;;;;3049364;19;4760;-25
2024/03/31 00:40:25;;;;;;;;;;;21.40;45.50;;;;;;3028335;19;4558;-25
2024/03/31 00:41:26;;;;;;;;;;;21.40;45.50;;;;;;3048347;19;4860;-28
2024/03/31 00:42:27;;;;;;;;;;;21.40;45.50;;;;;;3050350;19;4845;-25
2024/03/31 00:43:27;;;;;;;;;;;21.40;45.50;;;;;;3026900;19;4665;-25
2024/03/31 00:44:28;;;;;;;;;;;21.30;45.50;;;;;;3051133;19;4711;-25
2024/03/31 00:45:30;;;;;;;;;;;21.30;45.50;;;;;;3028209;19;4696;-26
2024/03/31 00:46:31;;;;;;;;;;;21.30;45.50;;;;;;3049866;19;4674;-25
2024/03/31 00:47:32;;;;;;;;;;;21.40;45.60;;;;;;3050102;19;4730;-25
2024/03/31 00:48:32;;;;;;;;;;;21.30;45.60;;;;;;3028795;19;4577;-25
2024/03/31 00:49:33;;;;;;;;;;;21.40;45.60;;;;;;3049550;19;4669;-24
2024/03/31 00:50:34;;;;;;;;;;;21.40;45.60;;;;;;3033119;19;4686;-24
2024/03/31 00:51:35;;;;;;;;;;;21.40;45.60;;;;;;3051267;19;4762;-26
2024/03/31 00:52:36;;;;;;;;;;;21.30;45.50;;;;;;3050098;19;4704;-24
2024/03/31 00:53:36;;;;;;;;;;;21.40;45.60;;;;;;3030317;19;4694;-24
2024/03/31 00:54:43;;;;;;;;;;;21.30;45.50;;;;;;3050035;19;4650;-25
2024/03/31 00:55:44;;;;;;;;;;;21.40;45.60;;;;;;3051559;19;4848;-26
2024/03/31 00:56:44;;;;;;;;;;;21.30;45.50;;;;;;3028739;19;4583;-24
2024/03/31 00:57:45;;;;;;;;;;;21.40;45.60;;;;;;3051086;19;4663;-26
2024/03/31 00:58:45;;;;;;;;;;;21.40;45.60;;;;;;3029016;19;4706;-25
2024/03/31 00:59:46;;;;;;;;;;;21.30;45.60;;;;;;3049835;19;4665;-26
2024/03/31 01:00:47;;;;;;;;;;;21.40;46.30;;;;;;3050633;19;4651;-26
2024/03/31 01:01:47;;;;;;;;;;;21.30;45.60;;;;;;3028613;19;4658;-24
2024/03/31 01:02:48;;;;;;;;;;;21.40;45.60;;;;;;3050593;19;5025;-25
2024/03/31 01:03:48;;;;;;;;;;;21.40;45.60;;;;;;3049651;19;4692;-28
2024/03/31 01:04:49;;;;;;;;;;;21.30;45.60;;;;;;3028100;19;4577;-24
2024/03/31 01:05:50;;;;;;;;;;;21.30;45.70;;;;;;3051278;19;4707;-26
2024/03/31 01:06:50;;;;;;;;;;;21.30;45.60;;;;;;3028749;19;4687;-25
2024/03/31 01:07:51;;;;;;;;;;;21.30;45.60;;;;;;3051226;19;4654;-25
2024/03/31 01:08:52;;;;;;;;;;;21.30;45.70;;;;;;3049737;19;4683;-25
2024/03/31 01:09:52;;;;;;;;;;;20.70;45.40;;;;;;3026265;19;4660;-26
2024/03/31 01:10:53;;;;;;;;;;;21.30;45.70;;;;;;3049882;19;4696;-24
2024/03/31 01:11:55;;;;;;;;;;;21.30;45.70;;;;;;3029217;19;4678;-27
2024/03/31 01:12:55;;;;;;;;;;;21.30;45.70;;;;;;3051095;19;4682;-25
2024/03/31 01:13:56;;;;;;;;;;;21.30;45.70;;;;;;3047968;19;4690;-23
2024/03/31 01:14:57;;;;;;;;;;;21.30;45.70;;;;;;3026981;19;4860;-24
2024/03/31 01:15:58;;;;;;;;;;;21.30;45.60;;;;;;3049205;19;4676;-27
2024/03/31 01:16:58;;;;;;;;;;;21.30;45.60;;;;;;3049925;19;4712;-25
2024/03/31 01:17:59;;;;;;;;;;;21.30;45.70;;;;;;3027601;19;4680;-26
2024/03/31 01:18:59;;;;;;;;;;;21.30;45.70;;;;;;3049464;19;4787;-24
2024/03/31 01:20:00;;;;;;;;;;;21.30;45.60;;;;;;3027205;19;4679;-24
2024/03/31 01:21:01;;;;;;;;;;;21.30;45.70;;;;;;3050215;19;4648;-25
2024/03/31 01:22:01;;;;;;;;;;;21.20;45.70;;;;;;3049326;19;4632;-25
2024/03/31 01:23:02;;;;;;;;;;;21.20;45.70;;;;;;3029253;19;4730;-24
2024/03/31 01:24:03;;;;;;;;;;;21.30;45.80;;;;;;3049042;19;4622;-25
2024/03/31 01:25:05;;;;;;;;;;;21.20;45.70;;;;;;3048950;19;4607;-26
2024/03/31 01:26:05;;;;;;;;;;;21.20;45.60;;;;;;3028656;19;4758;-24
2024/03/31 01:27:06;;;;;;;;;;;21.30;45.70;;;;;;3049899;19;4759;-24
2024/03/31 01:28:07;;;;;;;;;;;21.20;45.80;;;;;;3027593;19;4627;-25
2024/03/31 01:29:07;;;;;;;;;;;21.30;45.70;;;;;;3049409;19;4796;-24
2024/03/31 01:30:08;;;;;;;;;;;21.20;45.70;;;;;;3048947;19;4703;-27
2024/03/31 01:31:09;;;;;;;;;;;21.30;45.70;;;;;;3027217;19;4683;-26
2024/03/31 01:32:09;;;;;;;;;;;21.20;45.60;;;;;;3048660;19;4754;-24
2024/03/31 01:33:10;;;;;;;;;;;21.30;45.60;;;;;;3049395;19;4654;-25
2024/03/31 01:34:11;;;;;;;;;;;21.30;45.70;;;;;;3028505;19;4154;-25
2024/03/31 01:35:12;;;;;;;;;;;21.10;46.10;;;;;;3049603;19;4719;-25
2024/03/31 01:36:12;;;;;;;;;;;21.30;45.70;;;;;;3026419;19;4637;-24
2024/03/31 01:37:13;;;;;;;;;;;21.20;45.70;;;;;;3048320;19;4703;-24
2024/03/31 01:38:13;;;;;;;;;;;21.30;45.60;;;;;;3050205;19;4688;-35
2024/03/31 01:39:17;;;;;;;;;;;21.20;45.70;;;;;;3028002;19;4644;-36
2024/03/31 01:40:18;;;;;;;;;;;21.20;45.60;;;;;;3049494;19;4680;-33
2024/03/31 01:41:19;;;;;;;;;;;21.30;45.70;;;;;;3028733;19;4730;-30
2024/03/31 01:42:19;;;;;;;;;;;21.20;45.70;;;;;;3048044;19;4825;-34
2024/03/31 01:43:20;;;;;;;;;;;21.30;45.80;;;;;;3050558;19;4648;-33
2024/03/31 01:44:21;;;;;;;;;;;21.20;45.70;;;;;;3027607;19;4741;-35
2024/03/31 01:45:21;;;;;;;;;;;21.30;45.80;;;;;;3049053;19;4768;-34
2024/03/31 01:46:22;;;;;;;;;;;21.20;45.70;;;;;;3050072;19;4669;-34
2024/03/31 01:47:24;;;;;;;;;;;21.20;45.80;;;;;;3026400;19;4616;-26
2024/03/31 01:48:24;;;;;;;;;;;21.20;45.80;;;;;;3049606;19;4678;-25
2024/03/31 01:49:25;;;;;;;;;;;21.20;45.80;;;;;;3030529;19;4820;-23
2024/03/31 01:50:27;;;;;;;;;;;21.20;46.50;;;;;;3051317;19;4702;-24
2024/03/31 01:51:28;;;;;;;;;;;21.20;45.80;;;;;;3052574;19;4694;-25
2024/03/31 01:52:30;;;;;;;;;;;21.20;45.80;;;;;;3031392;19;4678;-27
2024/03/31 01:53:32;;;;;;;;;;;21.80;46.20;;;;;;3052389;19;4666;-25
2024/03/31 01:54:34;;;;;;;;;;;21.20;45.80;;;;;;3046988;19;4830;-26
2024/03/31 01:55:34;;;;;;;;;;;21.20;45.90;;;;;;3051858;19;5002;-25
2024/03/31 01:56:37;;;;;;;;;;;21.20;45.80;;;;;;3053152;19;4715;-25
2024/03/31 01:57:38;;;;;;;;;;;21.20;45.80;;;;;;3032408;19;4732;-26
2024/03/31 01:58:38;;;;;;;;;;;21.20;45.90;;;;;;3053065;19;4711;-28
2024/03/31 01:59:39;;;;;;;;;;;21.20;45.90;;;;;;3050454;19;4741;-26
2024/03/31 02:00:39;;;;;;;;;;;21.20;46.50;;;;;;3029108;19;4545;-25
2024/03/31 02:01:40;;;;;;;;;;;21.10;45.80;;;;;;3049901;19;4711;-26
2024/03/31 02:02:41;;;;;;;;;;;21.20;45.80;;;;;;3029858;19;4875;-25
2024/03/31 02:03:41;;;;;;;;;;;21.20;45.80;;;;;;3052375;19;4717;-26
2024/03/31 02:04:42;;;;;;;;;;;21.20;45.90;;;;;;3051793;19;4644;-27
2024/03/31 02:05:43;;;;;;;;;;;21.10;45.80;;;;;;3030398;19;4700;-27
2024/03/31 02:06:44;;;;;;;;;;;21.20;46.00;;;;;;3052878;19;4714;-24
2024/03/31 02:07:44;;;;;;;;;;;21.10;46.10;;;;;;3052146;19;4686;-25
2024/03/31 02:08:45;;;;;;;;;;;21.20;45.90;;;;;;3030340;19;4732;-27
2024/03/31 02:09:45;;;;;;;;;;;21.10;45.90;;;;;;3051611;19;4810;-24
2024/03/31 02:10:46;;;;;;;;;;;21.30;46.00;;;;;;3031355;19;4673;-26
2024/03/31 02:11:47;;;;;;;;;;;21.10;45.90;;;;;;3053145;19;4632;-27
2024/03/31 02:12:47;;;;;;;;;;;21.10;45.90;;;;;;3052794;19;4716;-26
2024/03/31 02:13:48;;;;;;;;;;;21.10;45.90;;;;;;3031664;19;4830;-25
2024/03/31 02:14:49;;;;;;;;;;;21.10;45.90;;;;;;3050850;19;4675;-25
2024/03/31 02:15:49;;;;;;;;;;;21.10;45.90;;;;;;3052021;19;4677;-26
2024/03/31 02:16:50;;;;;;;;;;;21.10;45.90;;;;;;3030548;19;4628;-25
2024/03/31 02:17:50;;;;;;;;;;;21.10;45.90;;;;;;3051164;19;4705;-26
2024/03/31 02:18:51;;;;;;;;;;;21.10;45.90;;;;;;3030603;19;4650;-26
2024/03/31 02:19:52;;;;;;;;;;;21.10;45.90;;;;;;3049812;19;4685;-26
2024/03/31 02:20:52;;;;;;;;;;;21.10;45.90;;;;;;3051842;19;4648;-25
2024/03/31 02:21:53;;;;;;;;;;;21.10;46.00;;;;;;3029132;19;4698;-25
2024/03/31 02:22:53;;;;;;;;;;;21.10;45.90;;;;;;3052827;19;4786;-25
2024/03/31 02:23:54;;;;;;;;;;;21.10;46.00;;;;;;3030514;19;4626;-26
2024/03/31 02:24:55;;;;;;;;;;;21.10;46.00;;;;;;3050556;19;4640;-24
2024/03/31 02:25:55;;;;;;;;;;;21.10;46.00;;;;;;3051086;19;4637;-24
2024/03/31 02:26:56;;;;;;;;;;;21.10;46.00;;;;;;3030354;19;4647;-26
2024/03/31 02:27:56;;;;;;;;;;;21.00;45.90;;;;;;3052215;19;4664;-25
2024/03/31 02:28:57;;;;;;;;;;;21.10;46.00;;;;;;3051357;19;4836;-26
2024/03/31 02:29:58;;;;;;;;;;;21.10;46.10;;;;;;3029530;19;4854;-27
2024/03/31 02:30:59;;;;;;;;;;;21.10;46.00;;;;;;3047749;19;4659;-24
2024/03/31 02:31:59;;;;;;;;;;;21.10;46.10;;;;;;3031183;19;4665;-24
2024/03/31 02:33:00;;;;;;;;;;;21.00;46.00;;;;;;3051190;19;4804;-27
2024/03/31 02:34:02;;;;;;;;;;;21.10;46.10;;;;;;3050829;19;4855;-24
2024/03/31 02:35:03;;;;;;;;;;;21.00;46.10;;;;;;3028269;19;4809;-24
2024/03/31 02:36:04;;;;;;;;;;;21.10;46.10;;;;;;3052883;19;4625;-25
2024/03/31 02:37:05;;;;;;;;;;;21.00;45.90;;;;;;3050686;19;4778;-28
2024/03/31 02:38:05;;;;;;;;;;;21.10;46.00;;;;;;3031046;19;4615;-26
2024/03/31 02:39:06;;;;;;;;;;;21.00;46.00;;;;;;3049865;19;21743;-25
2024/03/31 02:40:07;;;;;;;;;;;21.00;46.00;;;;;;3030337;19;4540;-25
2024/03/31 02:41:08;;;;;;;;;;;21.00;46.00;;;;;;3050406;19;4803;-26
2024/03/31 02:42:08;;;;;;;;;;;21.00;46.00;;;;;;3049184;19;4826;-25
2024/03/31 02:43:09;;;;;;;;;;;21.10;46.10;;;;;;3030033;19;4638;-24
2024/03/31 02:44:09;;;;;;;;;;;21.00;46.10;;;;;;3051917;19;4707;-25
2024/03/31 02:45:10;;;;;;;;;;;21.00;46.10;;;;;;3051754;19;4780;-24
2024/03/31 02:46:11;;;;;;;;;;;21.00;46.20;;;;;;3027812;19;4661;-25
2024/03/31 02:47:11;;;;;;;;;;;21.00;46.10;;;;;;3052124;19;4682;-26
2024/03/31 02:48:12;;;;;;;;;;;21.00;46.10;;;;;;3029636;19;4682;-28
2024/03/31 02:49:13;;;;;;;;;;;21.00;46.10;;;;;;3051174;19;4729;-26
2024/03/31 02:50:13;;;;;;;;;;;21.00;46.20;;;;;;3051943;19;4653;-24
2024/03/31 02:51:14;;;;;;;;;;;21.00;46.10;;;;;;3030564;19;4643;-25
2024/03/31 02:52:15;;;;;;;;;;;21.40;46.30;;;;;;3050003;19;4684;-26
2024/03/31 02:53:15;;;;;;;;;;;21.00;46.20;;;;;;3027569;19;4731;-24
2024/03/31 02:54:16;;;;;;;;;;;21.00;46.20;;;;;;3051790;19;4701;-24
2024/03/31 02:55:17;;;;;;;;;;;21.00;46.10;;;;;;3046694;19;4647;-24
2024/03/31 02:56:17;;;;;;;;;;;20.90;46.10;;;;;;3029325;19;4569;-25
2024/03/31 02:57:18;;;;;;;;;;;21.00;46.20;;;;;;3052045;19;4708;-25
2024/03/31 02:58:19;;;;;;;;;;;21.00;46.30;;;;;;3051416;19;4664;-25
2024/03/31 02:59:19;;;;;;;;;;;21.00;46.20;;;;;;3030218;19;4616;-25
2024/03/31 03:00:20;;;;;;;;;;;21.00;46.30;;;;;;3049707;19;4691;-24
2024/03/31 03:01:20;;;;;;;;;;;21.00;46.20;;;;;;3028208;19;4650;-24
2024/03/31 03:02:21;;;;;;;;;;;21.00;46.30;;;;;;3047378;19;4743;-26
2024/03/31 03:03:22;;;;;;;;;;;21.00;46.30;;;;;;3049754;19;4666;-24
2024/03/31 03:04:22;;;;;;;;;;;20.90;46.20;;;;;;3028903;19;4603;-28
2024/03/31 03:05:23;;;;;;;;;;;21.00;46.30;;;;;;3049919;19;4739;-28
2024/03/31 03:06:24;;;;;;;;;;;20.90;46.30;;;;;;3050830;19;4691;-26
2024/03/31 03:07:24;;;;;;;;;;;20.90;46.20;;;;;;3029556;19;4582;-26
2024/03/31 03:08:25;;;;;;;;;;;20.90;46.20;;;;;;3046767;19;4838;-25
2024/03/31 03:09:25;;;;;;;;;;;20.90;46.30;;;;;;3025828;19;4725;-26
2024/03/31 03:10:26;;;;;;;;;;;20.90;46.30;;;;;;3049994;19;4641;-27
2024/03/31 03:11:27;;;;;;;;;;;20.90;46.30;;;;;;3047896;19;4751;-26
2024/03/31 03:12:27;;;;;;;;;;;20.90;46.20;;;;;;3029426;19;4591;-26
2024/03/31 03:13:28;;;;;;;;;;;20.90;46.30;;;;;;3049861;19;4669;-25
2024/03/31 03:14:28;;;;;;;;;;;20.90;46.30;;;;;;3048334;19;4719;-25
2024/03/31 03:15:29;;;;;;;;;;;20.90;46.30;;;;;;3029585;19;4583;-26
2024/03/31 03:16:30;;;;;;;;;;;20.90;46.30;;;;;;3049899;19;4745;-24
2024/03/31 03:17:30;;;;;;;;;;;20.90;46.30;;;;;;3027871;19;4699;-24
2024/03/31 03:18:31;;;;;;;;;;;20.90;46.30;;;;;;3050318;19;4720;-25
2024/03/31 03:19:32;;;;;;;;;;;20.90;46.30;;;;;;3050110;19;4710;-24
2024/03/31 03:20:36;;;;;;;;;;;20.90;46.40;;;;;;3025658;19;4708;-25
2024/03/31 03:21:37;;;;;;;;;;;20.90;46.40;;;;;;3051623;19;4688;-24
2024/03/31 03:22:38;;;;;;;;;;;20.90;46.40;;;;;;3027766;19;4672;-24
2024/03/31 03:23:38;;;;;;;;;;;20.80;46.30;;;;;;3051255;19;4830;-26
2024/03/31 03:24:39;;;;;;;;;;;20.90;46.40;;;;;;3050144;19;4643;-25
2024/03/31 03:25:40;;;;;;;;;;;20.80;46.30;;;;;;3029019;19;4708;-26
2024/03/31 03:26:40;;;;;;;;;;;20.90;46.40;;;;;;3052242;19;4727;-24
2024/03/31 03:27:41;;;;;;;;;;;20.90;46.40;;;;;;3051606;19;4725;-26
2024/03/31 03:28:41;;;;;;;;;;;20.90;46.40;;;;;;3029430;19;4783;-27
2024/03/31 03:29:42;;;;;;;;;;;20.90;46.40;;;;;;3050672;19;4658;-27
2024/03/31 03:30:45;;;;;;;;;;;20.90;46.50;;;;;;3029352;19;4862;-25
2024/03/31 03:31:46;;;;;;;;;;;20.90;46.40;;;;;;3050660;19;4726;-27
2024/03/31 03:32:47;;;;;;;;;;;20.90;46.40;;;;;;3051350;19;4686;-25
2024/03/31 03:33:48;;;;;;;;;;;20.80;46.40;;;;;;3029226;19;4688;-25
2024/03/31 03:34:50;;;;;;;;;;;20.80;46.40;;;;;;3052299;19;4687;-25
2024/03/31 03:35:51;;;;;;;;;;;20.90;46.50;;;;;;3050743;19;4647;-24
2024/03/31 03:36:52;;;;;;;;;;;20.80;46.40;;;;;;3029614;19;4608;-24
2024/03/31 03:37:53;;;;;;;;;;;20.80;46.40;;;;;;3051155;19;4788;-31
2024/03/31 03:38:54;;;;;;;;;;;20.90;46.50;;;;;;3029385;19;4738;-31
2024/03/31 03:39:54;;;;;;;;;;;20.80;46.40;;;;;;3051968;19;4727;-33
2024/03/31 03:40:55;;;;;;;;;;;20.80;47.10;;;;;;3049982;19;4630;-33
2024/03/31 03:41:55;;;;;;;;;;;20.80;46.40;;;;;;3027296;19;4673;-32
2024/03/31 03:42:56;;;;;;;;;;;20.80;46.50;;;;;;3050927;19;4725;-35
2024/03/31 03:43:57;;;;;;;;;;;20.80;46.50;;;;;;3029386;19;4661;-33
2024/03/31 03:44:57;;;;;;;;;;;20.90;46.50;;;;;;3052080;19;4775;-35
2024/03/31 03:46:01;;;;;;;;;;;20.90;46.40;;;;;;3049409;19;4711;-34
2024/03/31 03:47:02;;;;;;;;;;;20.90;46.40;;;;;;3029550;19;4622;-31
2024/03/31 03:48:04;;;;;;;;;;;20.90;46.40;;;;;;3049940;19;4637;-33
2024/03/31 03:49:04;;;;;;;;;;;21.00;46.30;;;;;;3050428;19;4773;-33
2024/03/31 03:50:05;;;;;;;;;;;21.00;46.30;;;;;;3030621;19;4596;-31
2024/03/31 03:51:06;;;;;;;;;;;21.10;46.20;;;;;;3049112;19;4934;-30
2024/03/31 03:52:06;;;;;;;;;;;21.10;46.00;;;;;;3029894;19;4498;-31
2024/03/31 03:53:07;;;;;;;;;;;21.10;45.90;;;;;;3051557;19;1174;-31
2024/03/31 03:54:08;;;;;;;;;;;21.20;45.90;;;;;;3049408;19;4799;-33
2024/03/31 03:55:08;;;;;;;;;;;21.30;45.90;;;;;;3030874;19;4667;-32
2024/03/31 03:56:09;;;;;;;;;;;21.30;45.70;;;;;;3050220;19;4680;-31
2024/03/31 03:57:10;;;;;;;;;;;21.20;45.60;;;;;;3052110;19;4642;-31
2024/03/31 03:58:11;;;;;;;;;;;21.20;45.60;;;;;;3028146;19;4584;-33
2024/03/31 03:59:12;;;;;;;;;;;21.30;45.60;;;;;;3051079;19;4670;-32
2024/03/31 04:00:13;;;;;;;;;;;21.20;45.50;;;;;;3028237;19;4551;-36
2024/03/31 04:01:13;;;;;;;;;;;21.20;45.60;;;;;;3052232;19;1144;-31
2024/03/31 04:02:14;;;;;;;;;;;21.20;45.60;;;;;;3049144;19;4680;-31
2024/03/31 04:03:14;;;;;;;;;;;21.30;45.70;;;;;;3030022;19;4633;-34
2024/03/31 04:04:15;;;;;;;;;;;21.30;45.60;;;;;;3050538;19;4758;-31
2024/03/31 04:05:16;;;;;;;;;;;21.30;45.40;;;;;;3028168;19;4659;-30
2024/03/31 04:06:16;;;;;;;;;;;21.40;45.40;;;;;;3051851;19;4703;-33
2024/03/31 04:07:17;;;;;;;;;;;21.50;45.40;;;;;;3049957;19;4700;-33
2024/03/31 04:08:18;;;;;;;;;;;21.40;45.30;;;;;;3031224;19;4694;-25
2024/03/31 04:09:18;;;;;;;;;;;21.40;45.20;;;;;;3050435;19;4789;-28
2024/03/31 04:10:19;;;;;;;;;;;21.50;45.20;;;;;;3049834;19;4672;-25
2024/03/31 04:11:22;;;;;;;;;;;21.40;45.10;;;;;;3030635;19;4521;-26
2024/03/31 04:12:23;;;;;;;;;;;21.40;45.10;;;;;;3049269;19;4661;-25
2024/03/31 04:13:24;;;;;;;;;;;21.40;45.20;;;;;;3029481;19;4642;-26
2024/03/31 04:14:24;;;;;;;;;;;21.40;45.10;;;;;;3049885;19;4694;-27
2024/03/31 04:15:25;;;;;;;;;;;21.50;45.20;;;;;;3051635;19;4841;-24
2024/03/31 04:16:25;;;;;;;;;;;21.40;45.10;;;;;;3028755;19;4817;-24
2024/03/31 04:17:26;;;;;;;;;;;21.50;45.20;;;;;;3049985;19;4718;-24
2024/03/31 04:18:27;;;;;;;;;;;21.50;45.10;;;;;;3052501;19;4848;-26
2024/03/31 04:19:27;;;;;;;;;;;21.60;45.10;;;;;;3029358;19;4582;-28
2024/03/31 04:20:28;;;;;;;;;;;21.60;45.00;;;;;;3049734;19;4666;-24
2024/03/31 04:21:28;;;;;;;;;;;21.60;44.90;;;;;;3027728;19;4766;-25
2024/03/31 04:22:29;;;;;;;;;;;21.60;44.80;;;;;;3049199;19;5151;-24
2024/03/31 04:23:30;;;;;;;;;;;21.60;44.80;;;;;;3052416;19;4640;-26
2024/03/31 04:24:31;;;;;;;;;;;21.70;44.80;;;;;;3029196;19;4544;-26
2024/03/31 04:25:31;;;;;;;;;;;21.70;44.80;;;;;;3050936;19;4906;-25
2024/03/31 04:26:32;;;;;;;;;;;21.70;44.80;;;;;;3049215;19;4606;-25
2024/03/31 04:27:33;;;;;;;;;;;21.60;44.70;;;;;;3044789;19;4696;-25
2024/03/31 04:28:34;;;;;;;;;;;21.70;44.70;;;;;;3049225;19;4934;-25
2024/03/31 04:29:34;;;;;;;;;;;21.70;44.70;;;;;;3029279;19;4664;-27
2024/03/31 04:30:42;;;;;;;;;;;21.70;44.70;;;;;;3049516;19;4709;-27
2024/03/31 04:31:52;;;;;;;;;;;21.70;44.70;;;;;;3051987;19;4752;-26
2024/03/31 04:32:53;;;;;;;;;;;21.70;44.70;;;;;;3027971;19;4632;-24
2024/03/31 04:33:54;;;;;;;;;;;21.70;44.80;;;;;;3049887;19;4712;-24
2024/03/31 04:34:55;;;;;;;;;;;21.60;44.70;;;;;;3030379;19;4689;-28
2024/03/31 04:35:56;;;;;;;;;;;21.60;44.80;;;;;;3049943;19;4626;-25
2024/03/31 04:36:57;;;;;;;;;;;21.70;44.90;;;;;;3049668;19;4636;-24
2024/03/31 04:37:57;;;;;;;;;;;21.60;44.90;;;;;;3028125;19;4661;-25
2024/03/31 04:38:58;;;;;;;;;;;21.60;44.80;;;;;;3050822;19;4680;-24
2024/03/31 04:39:59;;;;;;;;;;;21.60;44.80;;;;;;3028760;19;4647;-26
2024/03/31 04:40:59;;;;;;;;;;;21.60;44.90;;;;;;3051318;19;4664;-25
2024/03/31 04:42:00;;;;;;;;;;;21.60;44.90;;;;;;3048400;19;4797;-25
2024/03/31 04:43:00;;;;;;;;;;;21.60;45.50;;;;;;3030680;19;4602;-25
2024/03/31 04:44:01;;;;;;;;;;;21.60;44.90;;;;;;3049792;19;4656;-26
2024/03/31 04:45:02;;;;;;;;;;;21.60;44.90;;;;;;3052228;19;4600;-25
2024/03/31 04:46:06;;;;;;;;;;;21.60;44.90;;;;;;3029268;19;4677;-25
2024/03/31 04:47:07;;;;;;;;;;;21.60;45.00;;;;;;3048590;19;4579;-25
2024/03/31 04:48:08;;;;;;;;;;;21.60;44.90;;;;;;3029677;19;4630;-31
2024/03/31 04:49:08;;;;;;;;;;;21.60;44.90;;;;;;3050540;19;1120;-34
2024/03/31 04:50:09;;;;;;;;;;;21.60;44.90;;;;;;3050981;19;4633;-32
2024/03/31 04:51:09;;;;;;;;;;;21.60;44.80;;;;;;3027508;19;5152;-31
2024/03/31 04:52:10;;;;;;;;;;;21.60;44.80;;;;;;3050204;19;4633;-33
2024/03/31 04:53:11;;;;;;;;;;;21.70;44.80;;;;;;3050103;19;4687;-32
2024/03/31 04:54:11;;;;;;;;;;;21.70;44.80;;;;;;3029678;19;4578;-35
2024/03/31 04:55:12;;;;;;;;;;;21.70;44.80;;;;;;3048827;19;4654;-33
2024/03/31 04:56:13;;;;;;;;;;;21.70;44.80;;;;;;3029331;19;4606;-30
2024/03/31 04:57:13;;;;;;;;;;;21.70;44.80;;;;;;3049247;19;4695;-31
2024/03/31 04:58:14;;;;;;;;;;;21.80;44.80;;;;;;3049735;19;4780;-32
2024/03/31 04:59:14;;;;;;;;;;;21.80;44.70;;;;;;3030159;19;4696;-31
2024/03/31 05:00:16;;;;;;;;;;;21.80;44.70;;;;;;3047676;19;4734;-30
2024/03/31 05:01:16;;;;;;;;;;;21.80;44.70;;;;;;3029954;19;4692;-32
2024/03/31 05:02:17;;;;;;;;;;;21.80;44.50;;;;;;3048901;19;4774;-31
2024/03/31 05:03:18;;;;;;;;;;;21.90;44.60;;;;;;3049880;19;4670;-31
2024/03/31 05:04:19;;;;;;;;;;;21.90;44.60;;;;;;3027813;19;4643;-34
2024/03/31 05:05:19;;;;;;;;;;;21.90;44.60;;;;;;3051537;19;4690;-32
2024/03/31 05:06:20;;;;;;;;;;;22.00;44.60;;;;;;3049695;19;4737;-33
2024/03/31 05:07:21;;;;;;;;;;;22.00;44.60;;;;;;3030453;19;4555;-35
2024/03/31 05:08:21;;;;;;;;;;;22.00;44.60;;;;;;3049159;19;4699;-35
2024/03/31 05:09:22;;;;;;;;;;;21.90;44.50;;;;;;3028773;19;4658;-31
2024/03/31 05:10:22;;;;;;;;;;;21.90;44.50;;;;;;3048260;19;4755;-34
2024/03/31 05:11:23;;;;;;;;;;;21.90;44.40;;;;;;3050362;19;4632;-32
2024/03/31 05:12:24;;;;;;;;;;;21.90;44.60;;;;;;3027356;19;4544;-32
2024/03/31 05:13:27;;;;;;;;;;;21.90;44.60;;;;;;3050534;19;4676;-36
2024/03/31 05:14:28;;;;;;;;;;;21.90;44.80;;;;;;3051038;19;4739;-30
2024/03/31 05:15:29;;;;;;;;;;;21.80;44.60;;;;;;3029195;19;4647;-33
2024/03/31 05:16:29;;;;;;;;;;;21.90;44.70;;;;;;3050311;19;4775;-32
2024/03/31 05:17:30;;;;;;;;;;;21.80;44.70;;;;;;3028249;19;4709;-32
2024/03/31 05:18:31;;;;;;;;;;;21.80;44.70;;;;;;3050085;19;4713;-24
2024/03/31 05:19:32;;;;;;;;;;;21.80;44.80;;;;;;3050625;19;4693;-26
2024/03/31 05:20:33;;;;;;;;;;;21.80;44.80;;;;;;3027471;19;4640;-25
2024/03/31 05:21:33;;;;;;;;;;;21.80;44.80;;;;;;3051106;19;4946;-26
2024/03/31 05:22:34;;;;;;;;;;;21.80;44.90;;;;;;3027627;19;4729;-25
2024/03/31 05:23:35;;;;;;;;;;;21.80;44.90;;;;;;3051150;19;4643;-25
2024/03/31 05:24:36;;;;;;;;;;;21.80;44.90;;;;;;3050785;19;4708;-24
2024/03/31 05:25:37;;;;;;;;;;;21.80;44.90;;;;;;3030227;19;4677;-25
2024/03/31 05:26:38;;;;;;;;;;;21.70;44.90;;;;;;3051790;19;4607;-24
2024/03/31 05:27:38;;;;;;;;;;;21.70;45.00;;;;;;3052467;19;4702;-26
2024/03/31 05:28:39;;;;;;;;;;;21.70;44.90;;;;;;3032127;19;4529;-33
2024/03/31 05:29:39;;;;;;;;;;;21.70;45.00;;;;;;3051048;19;4660;-34
2024/03/31 05:30:40;;;;;;;;;;;21.70;45.10;;;;;;3031297;19;4703;-30
2024/03/31 05:31:41;;;;;;;;;;;21.60;45.10;;;;;;3050445;19;4855;-32
2024/03/31 05:32:41;;;;;;;;;;;21.70;45.00;;;;;;3053107;19;4724;-30
2024/03/31 05:33:42;;;;;;;;;;;21.70;44.80;;;;;;3030277;19;4670;-31
2024/03/31 05:34:42;;;;;;;;;;;21.70;44.80;;;;;;3051889;19;4635;-34
2024/03/31 05:35:43;;;;;;;;;;;21.70;44.70;;;;;;3053426;19;4611;-31
2024/03/31 05:36:44;;;;;;;;;;;21.80;44.70;;;;;;3031225;19;4607;-32
2024/03/31 05:37:45;;;;;;;;;;;21.80;44.70;;;;;;3051846;19;4630;-34
2024/03/31 05:38:45;;;;;;;;;;;21.80;44.60;;;;;;3031696;19;4708;-35
2024/03/31 05:39:46;;;;;;;;;;;21.80;44.60;;;;;;3052313;19;4659;-33
2024/03/31 05:40:46;;;;;;;;;;;21.80;44.60;;;;;;3054345;19;4706;-33
2024/03/31 05:41:47;;;;;;;;;;;21.90;44.60;;;;;;3029335;19;4775;-32
2024/03/31 05:42:48;;;;;;;;;;;21.90;44.60;;;;;;3052633;19;4654;-31
2024/03/31 05:43:48;;;;;;;;;;;21.90;44.60;;;;;;3054895;19;4567;-31
2024/03/31 05:44:51;;;;;;;;;;;21.90;44.60;;;;;;3030927;19;4560;-29
2024/03/31 05:45:51;;;;;;;;;;;21.90;44.60;;;;;;3053966;19;4649;-35
2024/03/31 05:46:52;;;;;;;;;;;21.90;44.60;;;;;;3030600;19;4651;-31
2024/03/31 05:47:53;;;;;;;;;;;21.90;44.60;;;;;;3052450;19;4827;-31
2024/03/31 05:48:53;;;;;;;;;;;21.90;44.60;;;;;;3053995;19;4605;-32
2024/03/31 05:49:54;;;;;;;;;;;21.90;44.50;;;;;;3031241;19;4681;-31
2024/03/31 05:50:55;;;;;;;;;;;21.90;44.40;;;;;;3052254;19;4648;-34
2024/03/31 05:51:55;;;;;;;;;;;22.00;44.40;;;;;;3031411;19;4723;-31
2024/03/31 05:52:56;;;;;;;;;;;22.00;44.40;;;;;;3050942;19;4684;-33
2024/03/31 05:53:57;;;;;;;;;;;22.00;45.10;;;;;;3053620;19;4605;-36
2024/03/31 05:54:58;;;;;;;;;;;22.00;44.30;;;;;;3028660;19;4704;-34
2024/03/31 05:55:59;;;;;;;;;;;22.00;44.30;;;;;;3052992;19;4693;-35
2024/03/31 05:56:59;;;;;;;;;;;22.00;44.30;;;;;;3050254;19;4827;-35
2024/03/31 05:58:00;;;;;;;;;;;22.00;44.30;;;;;;3029380;19;4664;-30
2024/03/31 05:59:02;;;;;;;;;;;22.10;44.30;;;;;;3053031;19;4784;-28
2024/03/31 06:00:03;;;;;;;;;;;22.10;44.40;;;;;;3029510;19;4655;-24